sensor_id;sensor_type;location;lat;lon;timestamp;temperature;humidity
19164;DHT22;9714;51.208;4.242;2023-01-15T00:01:19;9.50;99.90
19164;DHT22;9714;51.208;4.242;2023-01-15T00:03:48;9.40;99.90
19164;DHT22;9714;51.208;4.242;2023-01-15T00:06:17;9.40;99.90
19164;DHT22;9714;51.208;4.242;2023-01-15T00:08:44;9.40;99.90
19164;DHT22;9714;51.208;4.242;2023-01-15T00:11:11;9.20;99.90
19164;DHT22;9714;51.208;4.242;2023-01-15T00:13:39;9.30;99.90
19164;DHT22;9714;51.208;4.242;2023-01-15T00:16:07;9.40;99.90
19164;DHT22;9714;51.208;4.242;2023-01-15T00:18:35;9.20;99.90
19164;DHT22;9714;51.208;4.242;2023-01-15T00:21:05;9.30;99.90
19164;DHT22;9714;51.208;4.242;2023-01-15T00:23:34;9.30;99.90
19164;DHT22;9714;51.208;4.242;2023-01-15T00:26:20;9.30;99.90
19164;DHT22;9714;51.208;4.242;2023-01-15T00:29:05;9.30;99.90
19164;DHT22;9714;51.208;4.242;2023-01-15T00:31:34;9.20;99.90
19164;DHT22;9714;51.208;4.242;2023-01-15T00:34:02;9.30;99.90
19164;DHT22;9714;51.208;4.242;2023-01-15T00:36:31;9.30;99.90
19164;DHT22;9714;51.208;4.242;2023-01-15T00:39:00;9.20;99.90
19164;DHT22;9714;51.208;4.242;2023-01-15T00:41:27;9.10;99.90
19164;DHT22;9714;51.208;4.242;2023-01-15T00:43:54;9.20;99.90
19164;DHT22;9714;51.208;4.242;2023-01-15T00:46:21;9.10;99.90
19164;DHT22;9714;51.208;4.242;2023-01-15T00:48:49;9.20;99.90
19164;DHT22;9714;51.208;4.242;2023-01-15T00:51:17;9.20;99.90
19164;DHT22;9714;51.208;4.242;2023-01-15T00:53:47;9.20;99.90
19164;DHT22;9714;51.208;4.242;2023-01-15T00:56:14;9.10;99.90
19164;DHT22;9714;51.208;4.242;2023-01-15T00:58:41;9.10;99.90
19164;DHT22;9714;51.208;4.242;2023-01-15T01:01:08;9.20;99.90
19164;DHT22;9714;51.208;4.242;2023-01-15T01:03:35;9.20;99.90
19164;DHT22;9714;51.208;4.242;2023-01-15T01:06:04;9.10;99.90
19164;DHT22;9714;51.208;4.242;2023-01-15T01:08:32;9.10;99.90
19164;DHT22;9714;51.208;4.242;2023-01-15T01:11:05;9.00;99.90
19164;DHT22;9714;51.208;4.242;2023-01-15T01:13:33;9.10;99.90
19164;DHT22;9714;51.208;4.242;2023-01-15T02:05:28;8.80;99.90
19164;DHT22;9714;51.208;4.242;2023-01-15T02:07:55;9.00;99.90
19164;DHT22;9714;51.208;4.242;2023-01-15T02:10:23;8.90;99.90
19164;DHT22;9714;51.208;4.242;2023-01-15T02:12:55;8.90;99.90
19164;DHT22;9714;51.208;4.242;2023-01-15T02:15:28;8.80;99.90
19164;DHT22;9714;51.208;4.242;2023-01-15T02:32:31;8.70;99.90
19164;DHT22;9714;51.208;4.242;2023-01-15T02:35:17;8.80;99.90
19164;DHT22;9714;51.208;4.242;2023-01-15T02:38:09;8.70;99.90
19164;DHT22;9714;51.208;4.242;2023-01-15T02:41:00;8.70;99.90
19164;DHT22;9714;51.208;4.242;2023-01-15T02:43:43;8.70;99.90
19164;DHT22;9714;51.208;4.242;2023-01-15T02:46:26;8.60;99.90
19164;DHT22;9714;51.208;4.242;2023-01-15T02:49:19;8.60;99.90
19164;DHT22;9714;51.208;4.242;2023-01-15T02:52:07;8.60;99.90
19164;DHT22;9714;51.208;4.242;2023-01-15T02:54:41;8.60;99.90
19164;DHT22;9714;51.208;4.242;2023-01-15T02:57:10;8.70;99.90
19164;DHT22;9714;51.208;4.242;2023-01-15T02:59:43;8.50;99.90
19164;DHT22;9714;51.208;4.242;2023-01-15T03:02:20;8.60;99.90
19164;DHT22;9714;51.208;4.242;2023-01-15T03:04:57;8.60;99.90
19164;DHT22;9714;51.208;4.242;2023-01-15T03:07:30;8.70;99.90
19164;DHT22;9714;51.208;4.242;2023-01-15T03:10:06;8.60;99.90
19164;DHT22;9714;51.208;4.242;2023-01-15T03:12:42;8.50;99.90
19164;DHT22;9714;51.208;4.242;2023-01-15T03:15:39;8.50;99.90
19164;DHT22;9714;51.208;4.242;2023-01-15T03:18:28;8.40;99.90
19164;DHT22;9714;51.208;4.242;2023-01-15T03:21:01;8.50;99.90
19164;DHT22;9714;51.208;4.242;2023-01-15T03:23:29;8.50;99.90
19164;DHT22;9714;51.208;4.242;2023-01-15T03:26:03;8.60;99.90
19164;DHT22;9714;51.208;4.242;2023-01-15T03:28:34;8.50;99.90
19164;DHT22;9714;51.208;4.242;2023-01-15T03:31:06;8.60;99.90
19164;DHT22;9714;51.208;4.242;2023-01-15T03:33:34;8.50;99.90
19164;DHT22;9714;51.208;4.242;2023-01-15T03:36:05;8.40;99.90
19164;DHT22;9714;51.208;4.242;2023-01-15T03:38:35;8.40;99.90
19164;DHT22;9714;51.208;4.242;2023-01-15T03:41:14;8.40;99.90
19164;DHT22;9714;51.208;4.242;2023-01-15T03:43:54;8.40;99.90
19164;DHT22;9714;51.208;4.242;2023-01-15T03:46:38;8.30;99.90
19164;DHT22;9714;51.208;4.242;2023-01-15T03:49:17;8.40;99.90
19164;DHT22;9714;51.208;4.242;2023-01-15T03:51:55;8.40;99.90
19164;DHT22;9714;51.208;4.242;2023-01-15T03:54:32;8.50;99.90
19164;DHT22;9714;51.208;4.242;2023-01-15T03:57:07;8.40;99.90
19164;DHT22;9714;51.208;4.242;2023-01-15T03:59:47;8.40;99.90
19164;DHT22;9714;51.208;4.242;2023-01-15T04:02:18;8.20;99.90
19164;DHT22;9714;51.208;4.242;2023-01-15T04:04:48;8.30;99.90
19164;DHT22;9714;51.208;4.242;2023-01-15T04:07:19;8.30;99.90
19164;DHT22;9714;51.208;4.242;2023-01-15T04:09:49;8.20;99.90
19164;DHT22;9714;51.208;4.242;2023-01-15T04:12:18;8.30;99.90
19164;DHT22;9714;51.208;4.242;2023-01-15T04:14:46;8.30;99.90
19164;DHT22;9714;51.208;4.242;2023-01-15T04:17:13;8.30;99.90
19164;DHT22;9714;51.208;4.242;2023-01-15T04:19:47;8.20;99.90
19164;DHT22;9714;51.208;4.242;2023-01-15T04:22:14;8.20;99.90
19164;DHT22;9714;51.208;4.242;2023-01-15T04:24:45;8.30;99.90
19164;DHT22;9714;51.208;4.242;2023-01-15T04:27:13;8.40;99.90
19164;DHT22;9714;51.208;4.242;2023-01-15T04:29:42;8.30;99.90
19164;DHT22;9714;51.208;4.242;2023-01-15T04:32:11;8.30;99.90
19164;DHT22;9714;51.208;4.242;2023-01-15T04:34:41;8.30;99.90
19164;DHT22;9714;51.208;4.242;2023-01-15T04:37:11;8.20;99.90
19164;DHT22;9714;51.208;4.242;2023-01-15T04:39:39;8.10;99.90
19164;DHT22;9714;51.208;4.242;2023-01-15T04:42:11;8.10;99.90
19164;DHT22;9714;51.208;4.242;2023-01-15T04:44:56;8.10;99.90
19164;DHT22;9714;51.208;4.242;2023-01-15T04:47:28;8.10;99.90
19164;DHT22;9714;51.208;4.242;2023-01-15T04:49:58;8.00;99.90
19164;DHT22;9714;51.208;4.242;2023-01-15T04:52:25;7.90;99.90
19164;DHT22;9714;51.208;4.242;2023-01-15T04:54:55;8.00;99.90
19164;DHT22;9714;51.208;4.242;2023-01-15T04:57:28;7.90;99.90
19164;DHT22;9714;51.208;4.242;2023-01-15T04:59:56;7.80;99.90
19164;DHT22;9714;51.208;4.242;2023-01-15T05:02:23;7.90;99.90
19164;DHT22;9714;51.208;4.242;2023-01-15T05:04:56;7.90;99.90
19164;DHT22;9714;51.208;4.242;2023-01-15T05:07:24;8.00;99.90
19164;DHT22;9714;51.208;4.242;2023-01-15T05:09:52;7.90;99.90
19164;DHT22;9714;51.208;4.242;2023-01-15T05:12:19;7.90;99.90
19164;DHT22;9714;51.208;4.242;2023-01-15T05:14:54;7.90;99.90
19164;DHT22;9714;51.208;4.242;2023-01-15T05:17:21;8.00;99.90
19164;DHT22;9714;51.208;4.242;2023-01-15T05:19:49;7.80;99.90
19164;DHT22;9714;51.208;4.242;2023-01-15T05:22:19;7.80;99.90
19164;DHT22;9714;51.208;4.242;2023-01-15T05:24:53;7.80;99.90
19164;DHT22;9714;51.208;4.242;2023-01-15T05:27:36;7.90;99.90
19164;DHT22;9714;51.208;4.242;2023-01-15T05:30:07;7.80;99.90
19164;DHT22;9714;51.208;4.242;2023-01-15T05:32:34;7.90;99.90
19164;DHT22;9714;51.208;4.242;2023-01-15T05:35:02;7.90;99.90
19164;DHT22;9714;51.208;4.242;2023-01-15T05:37:35;7.90;99.90
19164;DHT22;9714;51.208;4.242;2023-01-15T05:40:06;7.90;99.90
19164;DHT22;9714;51.208;4.242;2023-01-15T05:42:33;7.90;99.90
19164;DHT22;9714;51.208;4.242;2023-01-15T05:45:02;7.80;99.90
19164;DHT22;9714;51.208;4.242;2023-01-15T05:47:31;7.70;99.90
19164;DHT22;9714;51.208;4.242;2023-01-15T05:50:00;7.70;99.90
19164;DHT22;9714;51.208;4.242;2023-01-15T05:52:28;7.70;99.90
19164;DHT22;9714;51.208;4.242;2023-01-15T05:54:57;7.70;99.90
19164;DHT22;9714;51.208;4.242;2023-01-15T05:57:24;7.60;99.90
19164;DHT22;9714;51.208;4.242;2023-01-15T05:59:56;7.60;99.90
19164;DHT22;9714;51.208;4.242;2023-01-15T06:02:24;7.60;99.90
19164;DHT22;9714;51.208;4.242;2023-01-15T06:04:56;7.60;99.90
19164;DHT22;9714;51.208;4.242;2023-01-15T06:07:23;7.50;99.90
19164;DHT22;9714;51.208;4.242;2023-01-15T06:09:52;7.60;99.90
19164;DHT22;9714;51.208;4.242;2023-01-15T06:12:21;7.60;99.90
19164;DHT22;9714;51.208;4.242;2023-01-15T06:14:48;7.60;99.90
19164;DHT22;9714;51.208;4.242;2023-01-15T06:17:17;7.70;99.90
19164;DHT22;9714;51.208;4.242;2023-01-15T06:19:46;7.50;99.90
19164;DHT22;9714;51.208;4.242;2023-01-15T06:22:16;7.50;99.90
19164;DHT22;9714;51.208;4.242;2023-01-15T06:24:43;7.40;99.90
19164;DHT22;9714;51.208;4.242;2023-01-15T06:27:11;7.30;99.90
19164;DHT22;9714;51.208;4.242;2023-01-15T07:00:44;6.70;99.90
19164;DHT22;9714;51.208;4.242;2023-01-15T07:27:58;6.20;99.90
19164;DHT22;9714;51.208;4.242;2023-01-15T07:30:34;6.20;99.90
19164;DHT22;9714;51.208;4.242;2023-01-15T07:33:30;6.20;99.90
19164;DHT22;9714;51.208;4.242;2023-01-15T07:36:20;6.30;99.90
19164;DHT22;9714;51.208;4.242;2023-01-15T07:39:06;6.40;99.90
19164;DHT22;9714;51.208;4.242;2023-01-15T07:41:37;6.20;99.90
19164;DHT22;9714;51.208;4.242;2023-01-15T07:44:27;6.20;99.90
19164;DHT22;9714;51.208;4.242;2023-01-15T07:47:19;6.20;99.90
19164;DHT22;9714;51.208;4.242;2023-01-15T07:50:11;6.30;99.90
19164;DHT22;9714;51.208;4.242;2023-01-15T07:52:40;6.30;99.90
19164;DHT22;9714;51.208;4.242;2023-01-15T07:55:20;6.20;99.90
19164;DHT22;9714;51.208;4.242;2023-01-15T07:58:12;6.20;99.90
19164;DHT22;9714;51.208;4.242;2023-01-15T08:01:23;6.20;99.90
19164;DHT22;9714;51.208;4.242;2023-01-15T08:07:34;6.10;99.90
19164;DHT22;9714;51.208;4.242;2023-01-15T08:10:14;6.20;99.90
19164;DHT22;9714;51.208;4.242;2023-01-15T08:13:10;6.20;99.90
19164;DHT22;9714;51.208;4.242;2023-01-15T08:16:14;6.20;99.90
19164;DHT22;9714;51.208;4.242;2023-01-15T08:19:18;6.20;99.90
19164;DHT22;9714;51.208;4.242;2023-01-15T08:22:12;6.30;99.90
19164;DHT22;9714;51.208;4.242;2023-01-15T08:24:39;6.40;99.90
19164;DHT22;9714;51.208;4.242;2023-01-15T08:27:07;6.40;99.90
19164;DHT22;9714;51.208;4.242;2023-01-15T08:29:35;6.40;99.90
19164;DHT22;9714;51.208;4.242;2023-01-15T08:32:12;6.40;99.90
19164;DHT22;9714;51.208;4.242;2023-01-15T08:34:40;6.60;99.90
19164;DHT22;9714;51.208;4.242;2023-01-15T08:37:07;6.70;99.90
19164;DHT22;9714;51.208;4.242;2023-01-15T08:39:36;6.80;99.90
19164;DHT22;9714;51.208;4.242;2023-01-15T08:42:06;6.80;99.90
19164;DHT22;9714;51.208;4.242;2023-01-15T08:44:35;6.90;99.90
19164;DHT22;9714;51.208;4.242;2023-01-15T08:47:06;6.80;99.90
19164;DHT22;9714;51.208;4.242;2023-01-15T08:49:35;6.80;99.90
19164;DHT22;9714;51.208;4.242;2023-01-15T08:52:06;6.90;99.90
19164;DHT22;9714;51.208;4.242;2023-01-15T08:54:38;7.00;99.90
19164;DHT22;9714;51.208;4.242;2023-01-15T08:57:19;7.10;99.90
19164;DHT22;9714;51.208;4.242;2023-01-15T08:59:56;7.30;99.90
19164;DHT22;9714;51.208;4.242;2023-01-15T09:02:27;7.30;99.90
19164;DHT22;9714;51.208;4.242;2023-01-15T09:04:56;7.30;99.90
19164;DHT22;9714;51.208;4.242;2023-01-15T09:07:25;7.50;99.90
19164;DHT22;9714;51.208;4.242;2023-01-15T09:10:00;7.70;99.90
19164;DHT22;9714;51.208;4.242;2023-01-15T09:12:29;7.80;99.90
19164;DHT22;9714;51.208;4.242;2023-01-15T09:14:59;7.80;99.90
19164;DHT22;9714;51.208;4.242;2023-01-15T09:17:31;7.80;99.90
19164;DHT22;9714;51.208;4.242;2023-01-15T09:20:11;7.80;99.90
19164;DHT22;9714;51.208;4.242;2023-01-15T09:22:45;7.80;99.90
19164;DHT22;9714;51.208;4.242;2023-01-15T09:25:18;7.90;99.90
19164;DHT22;9714;51.208;4.242;2023-01-15T09:27:49;7.70;99.90
19164;DHT22;9714;51.208;4.242;2023-01-15T09:30:18;7.60;99.90
19164;DHT22;9714;51.208;4.242;2023-01-15T09:32:48;7.60;99.90
19164;DHT22;9714;51.208;4.242;2023-01-15T09:35:17;7.70;99.90
19164;DHT22;9714;51.208;4.242;2023-01-15T09:37:49;7.70;99.90
19164;DHT22;9714;51.208;4.242;2023-01-15T09:40:31;7.80;99.90
19164;DHT22;9714;51.208;4.242;2023-01-15T09:43:05;7.80;99.90
19164;DHT22;9714;51.208;4.242;2023-01-15T09:45:39;7.60;99.90
19164;DHT22;9714;51.208;4.242;2023-01-15T09:48:17;7.40;99.90
19164;DHT22;9714;51.208;4.242;2023-01-15T09:51:11;7.70;99.90
19164;DHT22;9714;51.208;4.242;2023-01-15T10:01:18;7.90;99.90
19164;DHT22;9714;51.208;4.242;2023-01-15T10:04:12;8.70;99.90
19164;DHT22;9714;51.208;4.242;2023-01-15T10:06:54;8.90;99.90
19164;DHT22;9714;51.208;4.242;2023-01-15T10:09:32;8.90;99.90
19164;DHT22;9714;51.208;4.242;2023-01-15T10:12:08;9.30;99.90
19164;DHT22;9714;51.208;4.242;2023-01-15T10:15:02;9.40;99.90
19164;DHT22;9714;51.208;4.242;2023-01-15T10:17:40;9.60;99.90
19164;DHT22;9714;51.208;4.242;2023-01-15T10:20:13;10.00;99.90
19164;DHT22;9714;51.208;4.242;2023-01-15T10:30:15;10.30;99.90
19164;DHT22;9714;51.208;4.242;2023-01-15T10:33:08;10.00;99.90
19164;DHT22;9714;51.208;4.242;2023-01-15T10:36:03;9.70;99.90
19164;DHT22;9714;51.208;4.242;2023-01-15T10:38:56;9.80;99.90
19164;DHT22;9714;51.208;4.242;2023-01-15T10:41:59;9.70;99.90
19164;DHT22;9714;51.208;4.242;2023-01-15T10:44:44;10.10;99.90
19164;DHT22;9714;51.208;4.242;2023-01-15T10:47:31;10.50;99.90
19164;DHT22;9714;51.208;4.242;2023-01-15T10:50:10;9.70;99.90
19164;DHT22;9714;51.208;4.242;2023-01-15T10:52:40;9.20;99.90
19164;DHT22;9714;51.208;4.242;2023-01-15T10:55:22;9.50;99.90
19164;DHT22;9714;51.208;4.242;2023-01-15T10:58:07;10.00;99.90
19164;DHT22;9714;51.208;4.242;2023-01-15T11:00:36;10.00;99.90
19164;DHT22;9714;51.208;4.242;2023-01-15T11:03:05;10.20;99.90
19164;DHT22;9714;51.208;4.242;2023-01-15T11:05:42;9.80;99.90
19164;DHT22;9714;51.208;4.242;2023-01-15T11:08:22;9.20;99.90
19164;DHT22;9714;51.208;4.242;2023-01-15T11:11:28;8.60;99.90
19164;DHT22;9714;51.208;4.242;2023-01-15T11:14:31;8.20;99.90
19164;DHT22;9714;51.208;4.242;2023-01-15T11:17:16;7.70;99.90
19164;DHT22;9714;51.208;4.242;2023-01-15T11:20:02;7.50;99.90
19164;DHT22;9714;51.208;4.242;2023-01-15T11:22:29;7.40;99.90
19164;DHT22;9714;51.208;4.242;2023-01-15T11:24:59;7.60;99.90
19164;DHT22;9714;51.208;4.242;2023-01-15T11:27:31;7.60;99.90
19164;DHT22;9714;51.208;4.242;2023-01-15T11:30:02;7.70;99.90
19164;DHT22;9714;51.208;4.242;2023-01-15T11:32:32;7.80;99.90
19164;DHT22;9714;51.208;4.242;2023-01-15T11:35:15;8.00;99.90
19164;DHT22;9714;51.208;4.242;2023-01-15T11:37:44;8.30;99.90
19164;DHT22;9714;51.208;4.242;2023-01-15T11:40:16;8.50;99.90
19164;DHT22;9714;51.208;4.242;2023-01-15T11:42:48;8.70;99.90
19164;DHT22;9714;51.208;4.242;2023-01-15T11:45:45;8.70;99.90
19164;DHT22;9714;51.208;4.242;2023-01-15T11:48:43;8.80;99.90
19164;DHT22;9714;51.208;4.242;2023-01-15T11:51:30;8.70;99.90
19164;DHT22;9714;51.208;4.242;2023-01-15T11:54:01;8.70;99.90
19164;DHT22;9714;51.208;4.242;2023-01-15T11:56:31;8.80;99.90
19164;DHT22;9714;51.208;4.242;2023-01-15T11:59:11;9.00;99.90
19164;DHT22;9714;51.208;4.242;2023-01-15T12:02:03;8.90;99.90
19164;DHT22;9714;51.208;4.242;2023-01-15T12:04:53;8.70;99.90
19164;DHT22;9714;51.208;4.242;2023-01-15T12:07:32;8.70;99.90
19164;DHT22;9714;51.208;4.242;2023-01-15T12:10:28;8.60;99.90
19164;DHT22;9714;51.208;4.242;2023-01-15T12:13:37;8.50;99.90
19164;DHT22;9714;51.208;4.242;2023-01-15T12:16:30;8.50;99.90
19164;DHT22;9714;51.208;4.242;2023-01-15T12:19:18;8.40;99.90
19164;DHT22;9714;51.208;4.242;2023-01-15T12:25:16;8.60;99.90
19164;DHT22;9714;51.208;4.242;2023-01-15T12:28:05;8.70;99.90
19164;DHT22;9714;51.208;4.242;2023-01-15T12:30:58;8.80;99.90
19164;DHT22;9714;51.208;4.242;2023-01-15T12:33:47;8.90;99.90
19164;DHT22;9714;51.208;4.242;2023-01-15T12:36:29;8.90;99.90
19164;DHT22;9714;51.208;4.242;2023-01-15T12:39:04;9.00;99.90
19164;DHT22;9714;51.208;4.242;2023-01-15T12:41:39;8.90;99.90
19164;DHT22;9714;51.208;4.242;2023-01-15T12:44:32;8.80;99.90
19164;DHT22;9714;51.208;4.242;2023-01-15T12:47:24;8.80;99.90
19164;DHT22;9714;51.208;4.242;2023-01-15T12:49:58;8.80;99.90
19164;DHT22;9714;51.208;4.242;2023-01-15T12:52:34;8.90;99.90
19164;DHT22;9714;51.208;4.242;2023-01-15T12:55:18;9.00;99.90
19164;DHT22;9714;51.208;4.242;2023-01-15T12:57:55;9.00;99.90
19164;DHT22;9714;51.208;4.242;2023-01-15T13:00:34;9.20;99.90
19164;DHT22;9714;51.208;4.242;2023-01-15T13:12:20;9.00;99.90
19164;DHT22;9714;51.208;4.242;2023-01-15T13:15:56;9.10;99.90
19164;DHT22;9714;51.208;4.242;2023-01-15T13:25:18;9.00;99.90
19164;DHT22;9714;51.208;4.242;2023-01-15T13:28:36;8.90;99.90
19164;DHT22;9714;51.208;4.242;2023-01-15T13:31:58;8.80;99.90
19164;DHT22;9714;51.208;4.242;2023-01-15T13:35:06;8.90;99.90
19164;DHT22;9714;51.208;4.242;2023-01-15T13:38:26;8.80;99.90
19164;DHT22;9714;51.208;4.242;2023-01-15T13:41:38;8.80;99.90
19164;DHT22;9714;51.208;4.242;2023-01-15T13:47:05;9.00;99.90
19164;DHT22;9714;51.208;4.242;2023-01-15T13:48:10;9.00;99.90
19164;DHT22;9714;51.208;4.242;2023-01-15T13:54:46;8.80;99.90
19164;DHT22;9714;51.208;4.242;2023-01-15T13:58:23;8.80;99.90
19164;DHT22;9714;51.208;4.242;2023-01-15T14:01:25;9.10;99.90
19164;DHT22;9714;51.208;4.242;2023-01-15T14:04:06;9.00;99.90
19164;DHT22;9714;51.208;4.242;2023-01-15T14:06:46;8.80;99.90
19164;DHT22;9714;51.208;4.242;2023-01-15T14:09:27;8.70;99.90
19164;DHT22;9714;51.208;4.242;2023-01-15T14:12:09;8.90;99.90
19164;DHT22;9714;51.208;4.242;2023-01-15T14:15:02;8.90;99.90
19164;DHT22;9714;51.208;4.242;2023-01-15T14:17:57;8.70;99.90
19164;DHT22;9714;51.208;4.242;2023-01-15T14:20:52;8.60;99.90
19164;DHT22;9714;51.208;4.242;2023-01-15T14:23:42;8.50;99.90
19164;DHT22;9714;51.208;4.242;2023-01-15T14:26:26;8.40;99.90
19164;DHT22;9714;51.208;4.242;2023-01-15T14:29:13;8.30;99.90
19164;DHT22;9714;51.208;4.242;2023-01-15T14:32:08;8.30;99.90
19164;DHT22;9714;51.208;4.242;2023-01-15T14:34:57;8.50;99.90
19164;DHT22;9714;51.208;4.242;2023-01-15T14:37:28;8.40;99.90
19164;DHT22;9714;51.208;4.242;2023-01-15T14:40:00;8.30;99.90
19164;DHT22;9714;51.208;4.242;2023-01-15T14:42:34;8.30;99.90
19164;DHT22;9714;51.208;4.242;2023-01-15T14:45:28;8.20;99.90
19164;DHT22;9714;51.208;4.242;2023-01-15T14:48:16;8.10;99.90
19164;DHT22;9714;51.208;4.242;2023-01-15T14:50:50;8.20;99.90
19164;DHT22;9714;51.208;4.242;2023-01-15T14:53:46;8.00;99.90
19164;DHT22;9714;51.208;4.242;2023-01-15T14:56:19;7.90;99.90
19164;DHT22;9714;51.208;4.242;2023-01-15T14:59:07;7.70;99.90
19164;DHT22;9714;51.208;4.242;2023-01-15T15:01:51;7.70;99.90
19164;DHT22;9714;51.208;4.242;2023-01-15T15:04:33;7.90;99.90
19164;DHT22;9714;51.208;4.242;2023-01-15T15:07:34;7.70;99.90
19164;DHT22;9714;51.208;4.242;2023-01-15T15:10:13;7.60;99.90
19164;DHT22;9714;51.208;4.242;2023-01-15T15:12:57;7.60;99.90
19164;DHT22;9714;51.208;4.242;2023-01-15T15:15:39;7.50;99.90
19164;DHT22;9714;51.208;4.242;2023-01-15T15:18:28;7.50;99.90
19164;DHT22;9714;51.208;4.242;2023-01-15T15:21:12;7.50;99.90
19164;DHT22;9714;51.208;4.242;2023-01-15T15:23:47;7.40;99.90
19164;DHT22;9714;51.208;4.242;2023-01-15T15:26:27;7.40;99.90
19164;DHT22;9714;51.208;4.242;2023-01-15T15:28:59;7.40;99.90
19164;DHT22;9714;51.208;4.242;2023-01-15T15:31:32;7.30;99.90
19164;DHT22;9714;51.208;4.242;2023-01-15T15:34:00;7.30;99.90
19164;DHT22;9714;51.208;4.242;2023-01-15T15:36:37;7.20;99.90
19164;DHT22;9714;51.208;4.242;2023-01-15T15:39:25;7.30;99.90
19164;DHT22;9714;51.208;4.242;2023-01-15T15:42:03;7.30;99.90
19164;DHT22;9714;51.208;4.242;2023-01-15T15:45:13;7.30;99.90
19164;DHT22;9714;51.208;4.242;2023-01-15T15:48:12;7.30;99.90
19164;DHT22;9714;51.208;4.242;2023-01-15T15:51:01;7.40;99.90
19164;DHT22;9714;51.208;4.242;2023-01-15T15:53:38;7.30;99.90
19164;DHT22;9714;51.208;4.242;2023-01-15T15:56:29;7.40;99.90
19164;DHT22;9714;51.208;4.242;2023-01-15T15:59:21;7.30;99.90
19164;DHT22;9714;51.208;4.242;2023-01-15T16:03:16;7.30;99.90
19164;DHT22;9714;51.208;4.242;2023-01-15T16:08:53;7.10;99.90
19164;DHT22;9714;51.208;4.242;2023-01-15T16:11:32;7.00;99.90
19164;DHT22;9714;51.208;4.242;2023-01-15T16:14:19;6.90;99.90
19164;DHT22;9714;51.208;4.242;2023-01-15T16:37:52;6.70;99.90
19164;DHT22;9714;51.208;4.242;2023-01-15T16:41:06;6.70;99.90
19164;DHT22;9714;51.208;4.242;2023-01-15T16:52:53;6.80;99.90
19164;DHT22;9714;51.208;4.242;2023-01-15T16:55:07;6.80;99.90
19164;DHT22;9714;51.208;4.242;2023-01-15T16:58:30;6.80;99.90
19164;DHT22;9714;51.208;4.242;2023-01-15T18:08:26;6.10;99.90
19164;DHT22;9714;51.208;4.242;2023-01-15T18:11:51;6.20;99.90
19164;DHT22;9714;51.208;4.242;2023-01-15T18:22:24;6.20;99.90
19164;DHT22;9714;51.208;4.242;2023-01-15T18:49:27;6.50;99.90
19164;DHT22;9714;51.208;4.242;2023-01-15T19:40:08;6.70;99.90
19164;DHT22;9714;51.208;4.242;2023-01-15T19:42:35;6.60;99.90
19164;DHT22;9714;51.208;4.242;2023-01-15T19:45:20;6.70;99.90
19164;DHT22;9714;51.208;4.242;2023-01-15T19:48:06;6.80;99.90
19164;DHT22;9714;51.208;4.242;2023-01-15T19:50:52;6.80;99.90
19164;DHT22;9714;51.208;4.242;2023-01-15T19:53:19;6.90;99.90
19164;DHT22;9714;51.208;4.242;2023-01-15T19:55:48;6.90;99.90
19164;DHT22;9714;51.208;4.242;2023-01-15T19:58:15;7.10;99.90
19164;DHT22;9714;51.208;4.242;2023-01-15T20:00:44;7.00;99.90
19164;DHT22;9714;51.208;4.242;2023-01-15T20:03:14;7.00;99.90
19164;DHT22;9714;51.208;4.242;2023-01-15T20:05:43;7.10;99.90
19164;DHT22;9714;51.208;4.242;2023-01-15T20:08:11;7.10;99.90
19164;DHT22;9714;51.208;4.242;2023-01-15T20:10:40;7.10;99.90
19164;DHT22;9714;51.208;4.242;2023-01-15T20:13:11;7.10;99.90
19164;DHT22;9714;51.208;4.242;2023-01-15T20:15:56;7.20;99.90
19164;DHT22;9714;51.208;4.242;2023-01-15T20:18:26;7.10;99.90
19164;DHT22;9714;51.208;4.242;2023-01-15T20:20:53;7.00;99.90
19164;DHT22;9714;51.208;4.242;2023-01-15T20:23:22;7.00;99.90
19164;DHT22;9714;51.208;4.242;2023-01-15T20:25:49;6.90;99.90
19164;DHT22;9714;51.208;4.242;2023-01-15T20:28:18;6.70;99.90
19164;DHT22;9714;51.208;4.242;2023-01-15T20:30:46;6.60;99.90
19164;DHT22;9714;51.208;4.242;2023-01-15T20:33:13;6.50;99.90
19164;DHT22;9714;51.208;4.242;2023-01-15T20:35:40;6.70;99.90
19164;DHT22;9714;51.208;4.242;2023-01-15T20:38:06;6.70;99.90
19164;DHT22;9714;51.208;4.242;2023-01-15T20:40:33;6.60;99.90
19164;DHT22;9714;51.208;4.242;2023-01-15T20:43:00;6.70;99.90
19164;DHT22;9714;51.208;4.242;2023-01-15T20:45:46;6.80;99.90
19164;DHT22;9714;51.208;4.242;2023-01-15T20:48:13;6.80;99.90
19164;DHT22;9714;51.208;4.242;2023-01-15T20:50:57;6.60;99.90
19164;DHT22;9714;51.208;4.242;2023-01-15T20:53:28;6.50;99.90
19164;DHT22;9714;51.208;4.242;2023-01-15T20:55:59;6.50;99.90
19164;DHT22;9714;51.208;4.242;2023-01-15T20:58:26;6.60;99.90
19164;DHT22;9714;51.208;4.242;2023-01-15T21:01:10;6.50;99.90
19164;DHT22;9714;51.208;4.242;2023-01-15T21:03:43;6.50;99.90
19164;DHT22;9714;51.208;4.242;2023-01-15T21:09:14;6.60;99.90
19164;DHT22;9714;51.208;4.242;2023-01-15T21:11:42;6.40;99.90
19164;DHT22;9714;51.208;4.242;2023-01-15T21:14:11;6.30;99.90
19164;DHT22;9714;51.208;4.242;2023-01-15T21:16:39;6.30;99.90
19164;DHT22;9714;51.208;4.242;2023-01-15T21:19:06;6.30;99.90
19164;DHT22;9714;51.208;4.242;2023-01-15T21:21:34;6.30;99.90
19164;DHT22;9714;51.208;4.242;2023-01-15T21:24:12;6.30;99.90
19164;DHT22;9714;51.208;4.242;2023-01-15T21:26:42;6.30;99.90
19164;DHT22;9714;51.208;4.242;2023-01-15T21:29:14;6.20;99.90
19164;DHT22;9714;51.208;4.242;2023-01-15T21:31:46;6.10;99.90
19164;DHT22;9714;51.208;4.242;2023-01-15T21:34:13;5.90;99.90
19164;DHT22;9714;51.208;4.242;2023-01-15T21:36:40;5.90;99.90
19164;DHT22;9714;51.208;4.242;2023-01-15T22:40:46;6.00;99.90
19164;DHT22;9714;51.208;4.242;2023-01-15T22:43:43;5.90;99.90
19164;DHT22;9714;51.208;4.242;2023-01-15T23:02:49;5.70;99.90
19164;DHT22;9714;51.208;4.242;2023-01-15T23:05:33;5.70;99.90
19164;DHT22;9714;51.208;4.242;2023-01-15T23:08:02;5.60;99.90
19164;DHT22;9714;51.208;4.242;2023-01-15T23:10:29;5.60;99.90
19164;DHT22;9714;51.208;4.242;2023-01-15T23:13:00;5.60;99.90
19164;DHT22;9714;51.208;4.242;2023-01-15T23:15:30;5.60;99.90
19164;DHT22;9714;51.208;4.242;2023-01-15T23:17:59;5.50;99.90
19164;DHT22;9714;51.208;4.242;2023-01-15T23:20:26;5.50;99.90
19164;DHT22;9714;51.208;4.242;2023-01-15T23:22:55;5.40;99.90
19164;DHT22;9714;51.208;4.242;2023-01-15T23:25:23;5.40;99.90
19164;DHT22;9714;51.208;4.242;2023-01-15T23:27:50;5.50;99.90
19164;DHT22;9714;51.208;4.242;2023-01-15T23:30:17;5.40;99.90
19164;DHT22;9714;51.208;4.242;2023-01-15T23:32:45;5.50;99.90
19164;DHT22;9714;51.208;4.242;2023-01-15T23:35:18;5.60;99.90
19164;DHT22;9714;51.208;4.242;2023-01-15T23:37:54;5.50;99.90
19164;DHT22;9714;51.208;4.242;2023-01-15T23:40:47;5.60;99.90
19164;DHT22;9714;51.208;4.242;2023-01-15T23:43:41;5.60;99.90
19164;DHT22;9714;51.208;4.242;2023-01-15T23:46:57;5.60;99.90
